sensor_id;sensor_type;location;lat;lon;timestamp;P1;durP1;ratioP1;P2;durP2;ratioP2
38264;SDS011;24062;47.480;8.768;2022-12-13T00:00:41;3.13;;;2.83;;
38264;SDS011;24062;47.480;8.768;2022-12-13T00:03:09;3.90;;;2.90;;
38264;SDS011;24062;47.480;8.768;2022-12-13T00:05:42;2.73;;;2.47;;
38264;SDS011;24062;47.480;8.768;2022-12-13T00:08:10;2.80;;;2.47;;
38264;SDS011;24062;47.480;8.768;2022-12-13T00:10:36;3.27;;;2.77;;
38264;SDS011;24062;47.480;8.768;2022-12-13T00:13:03;3.10;;;2.90;;
38264;SDS011;24062;47.480;8.768;2022-12-13T00:15:30;2.80;;;2.50;;
38264;SDS011;24062;47.480;8.768;2022-12-13T00:17:57;2.93;;;2.40;;
38264;SDS011;24062;47.480;8.768;2022-12-13T00:20:25;3.20;;;2.90;;
38264;SDS011;24062;47.480;8.768;2022-12-13T00:22:52;3.20;;;2.90;;
38264;SDS011;24062;47.480;8.768;2022-12-13T00:25:19;3.37;;;2.77;;
38264;SDS011;24062;47.480;8.768;2022-12-13T00:27:46;2.87;;;2.50;;
38264;SDS011;24062;47.480;8.768;2022-12-13T00:30:13;2.83;;;2.57;;
38264;SDS011;24062;47.480;8.768;2022-12-13T00:32:40;3.70;;;2.40;;
38264;SDS011;24062;47.480;8.768;2022-12-13T00:35:07;9.60;;;2.67;;
38264;SDS011;24062;47.480;8.768;2022-12-13T00:37:36;5.33;;;2.87;;
38264;SDS011;24062;47.480;8.768;2022-12-13T00:40:04;5.37;;;2.70;;
38264;SDS011;24062;47.480;8.768;2022-12-13T00:42:33;2.83;;;2.57;;
38264;SDS011;24062;47.480;8.768;2022-12-13T00:45:00;3.20;;;2.90;;
38264;SDS011;24062;47.480;8.768;2022-12-13T00:47:27;3.20;;;2.60;;
38264;SDS011;24062;47.480;8.768;2022-12-13T00:49:54;4.20;;;2.97;;
38264;SDS011;24062;47.480;8.768;2022-12-13T00:52:21;3.03;;;2.63;;
38264;SDS011;24062;47.480;8.768;2022-12-13T00:54:49;3.90;;;3.10;;
38264;SDS011;24062;47.480;8.768;2022-12-13T00:57:16;2.77;;;2.53;;
38264;SDS011;24062;47.480;8.768;2022-12-13T00:59:43;2.90;;;2.60;;
38264;SDS011;24062;47.480;8.768;2022-12-13T01:02:10;3.70;;;3.40;;
38264;SDS011;24062;47.480;8.768;2022-12-13T01:04:37;3.30;;;3.00;;
38264;SDS011;24062;47.480;8.768;2022-12-13T01:07:04;4.80;;;2.97;;
38264;SDS011;24062;47.480;8.768;2022-12-13T01:09:31;3.30;;;2.40;;
38264;SDS011;24062;47.480;8.768;2022-12-13T01:12:00;3.57;;;3.00;;
38264;SDS011;24062;47.480;8.768;2022-12-13T01:14:29;3.10;;;2.80;;
38264;SDS011;24062;47.480;8.768;2022-12-13T01:16:57;3.10;;;2.80;;
38264;SDS011;24062;47.480;8.768;2022-12-13T01:19:24;3.67;;;2.77;;
38264;SDS011;24062;47.480;8.768;2022-12-13T01:21:52;3.13;;;2.83;;
38264;SDS011;24062;47.480;8.768;2022-12-13T01:24:20;2.90;;;2.50;;
38264;SDS011;24062;47.480;8.768;2022-12-13T01:26:48;3.57;;;2.97;;
38264;SDS011;24062;47.480;8.768;2022-12-13T01:29:17;2.77;;;2.50;;
38264;SDS011;24062;47.480;8.768;2022-12-13T01:31:45;4.10;;;3.07;;
38264;SDS011;24062;47.480;8.768;2022-12-13T01:34:13;4.63;;;2.93;;
38264;SDS011;24062;47.480;8.768;2022-12-13T01:36:42;3.30;;;3.00;;
38264;SDS011;24062;47.480;8.768;2022-12-13T01:39:11;3.23;;;2.73;;
38264;SDS011;24062;47.480;8.768;2022-12-13T01:41:40;4.33;;;2.60;;
38264;SDS011;24062;47.480;8.768;2022-12-13T01:47:09;2.90;;;2.60;;
38264;SDS011;24062;47.480;8.768;2022-12-13T01:49:37;2.73;;;2.43;;
38264;SDS011;24062;47.480;8.768;2022-12-13T01:52:04;3.33;;;3.03;;
38264;SDS011;24062;47.480;8.768;2022-12-13T01:54:35;3.50;;;2.50;;
38264;SDS011;24062;47.480;8.768;2022-12-13T01:57:06;3.10;;;2.57;;
38264;SDS011;24062;47.480;8.768;2022-12-13T01:59:35;2.23;;;1.83;;
38264;SDS011;24062;47.480;8.768;2022-12-13T02:02:04;2.87;;;2.57;;
38264;SDS011;24062;47.480;8.768;2022-12-13T02:04:35;3.03;;;2.50;;
38264;SDS011;24062;47.480;8.768;2022-12-13T02:07:05;3.30;;;3.00;;
38264;SDS011;24062;47.480;8.768;2022-12-13T02:09:32;4.20;;;2.67;;
38264;SDS011;24062;47.480;8.768;2022-12-13T02:12:01;3.40;;;2.47;;
38264;SDS011;24062;47.480;8.768;2022-12-13T02:14:28;3.47;;;2.70;;
38264;SDS011;24062;47.480;8.768;2022-12-13T02:16:56;2.70;;;2.40;;
38264;SDS011;24062;47.480;8.768;2022-12-13T02:19:52;2.63;;;2.43;;
38264;SDS011;24062;47.480;8.768;2022-12-13T02:22:47;2.70;;;2.30;;
38264;SDS011;24062;47.480;8.768;2022-12-13T02:25:34;3.80;;;2.60;;
38264;SDS011;24062;47.480;8.768;2022-12-13T02:28:22;2.73;;;2.53;;
38264;SDS011;24062;47.480;8.768;2022-12-13T02:31:06;3.30;;;2.70;;
38264;SDS011;24062;47.480;8.768;2022-12-13T02:33:38;2.80;;;2.60;;
38264;SDS011;24062;47.480;8.768;2022-12-13T02:36:15;2.50;;;2.30;;
38264;SDS011;24062;47.480;8.768;2022-12-13T02:38:52;2.50;;;2.30;;
38264;SDS011;24062;47.480;8.768;2022-12-13T02:41:24;2.47;;;2.27;;
38264;SDS011;24062;47.480;8.768;2022-12-13T02:43:59;5.10;;;2.50;;
38264;SDS011;24062;47.480;8.768;2022-12-13T02:46:32;3.00;;;2.70;;
38264;SDS011;24062;47.480;8.768;2022-12-13T02:49:02;2.77;;;2.50;;
38264;SDS011;24062;47.480;8.768;2022-12-13T02:51:32;3.07;;;2.77;;
38264;SDS011;24062;47.480;8.768;2022-12-13T02:54:01;2.50;;;2.30;;
38264;SDS011;24062;47.480;8.768;2022-12-13T02:56:29;3.77;;;2.63;;
38264;SDS011;24062;47.480;8.768;2022-12-13T02:58:56;3.37;;;2.67;;
38264;SDS011;24062;47.480;8.768;2022-12-13T03:01:31;2.57;;;2.10;;
38264;SDS011;24062;47.480;8.768;2022-12-13T03:04:10;2.37;;;2.17;;
38264;SDS011;24062;47.480;8.768;2022-12-13T03:06:45;2.60;;;2.20;;
38264;SDS011;24062;47.480;8.768;2022-12-13T03:09:25;2.43;;;2.23;;
38264;SDS011;24062;47.480;8.768;2022-12-13T03:12:04;3.00;;;2.70;;
38264;SDS011;24062;47.480;8.768;2022-12-13T03:14:59;2.80;;;2.50;;
38264;SDS011;24062;47.480;8.768;2022-12-13T03:17:36;3.40;;;2.90;;
38264;SDS011;24062;47.480;8.768;2022-12-13T03:20:09;3.23;;;2.30;;
38264;SDS011;24062;47.480;8.768;2022-12-13T03:22:42;2.20;;;1.80;;
38264;SDS011;24062;47.480;8.768;2022-12-13T03:25:09;2.70;;;2.50;;
38264;SDS011;24062;47.480;8.768;2022-12-13T03:27:36;3.80;;;2.40;;
38264;SDS011;24062;47.480;8.768;2022-12-13T03:30:03;2.37;;;2.17;;
38264;SDS011;24062;47.480;8.768;2022-12-13T03:32:31;2.33;;;1.97;;
38264;SDS011;24062;47.480;8.768;2022-12-13T03:34:59;5.97;;;2.57;;
38264;SDS011;24062;47.480;8.768;2022-12-13T03:37:26;2.30;;;1.90;;
38264;SDS011;24062;47.480;8.768;2022-12-13T03:39:53;2.87;;;2.03;;
38264;SDS011;24062;47.480;8.768;2022-12-13T03:42:21;2.70;;;2.33;;
38264;SDS011;24062;47.480;8.768;2022-12-13T03:44:48;2.60;;;2.20;;
38264;SDS011;24062;47.480;8.768;2022-12-13T03:47:15;2.60;;;2.00;;
38264;SDS011;24062;47.480;8.768;2022-12-13T03:49:42;2.50;;;2.30;;
38264;SDS011;24062;47.480;8.768;2022-12-13T03:52:10;3.00;;;2.07;;
38264;SDS011;24062;47.480;8.768;2022-12-13T03:54:37;2.70;;;2.23;;
38264;SDS011;24062;47.480;8.768;2022-12-13T03:57:04;2.33;;;2.13;;
38264;SDS011;24062;47.480;8.768;2022-12-13T03:59:31;2.30;;;1.97;;
38264;SDS011;24062;47.480;8.768;2022-12-13T04:01:58;2.63;;;2.10;;
38264;SDS011;24062;47.480;8.768;2022-12-13T04:04:25;2.50;;;2.13;;
38264;SDS011;24062;47.480;8.768;2022-12-13T04:06:52;2.10;;;1.60;;
38264;SDS011;24062;47.480;8.768;2022-12-13T04:09:20;2.27;;;1.87;;
38264;SDS011;24062;47.480;8.768;2022-12-13T04:11:47;2.80;;;2.33;;
38264;SDS011;24062;47.480;8.768;2022-12-13T04:14:31;2.33;;;2.00;;
38264;SDS011;24062;47.480;8.768;2022-12-13T04:16:58;2.70;;;2.20;;
38264;SDS011;24062;47.480;8.768;2022-12-13T04:19:25;2.17;;;1.87;;
38264;SDS011;24062;47.480;8.768;2022-12-13T04:21:52;2.80;;;2.37;;
38264;SDS011;24062;47.480;8.768;2022-12-13T04:24:21;2.70;;;2.20;;
38264;SDS011;24062;47.480;8.768;2022-12-13T04:26:48;2.40;;;1.97;;
38264;SDS011;24062;47.480;8.768;2022-12-13T04:29:15;2.70;;;2.10;;
38264;SDS011;24062;47.480;8.768;2022-12-13T04:31:41;3.40;;;2.10;;
38264;SDS011;24062;47.480;8.768;2022-12-13T04:34:08;2.60;;;2.00;;
38264;SDS011;24062;47.480;8.768;2022-12-13T04:36:35;2.30;;;1.83;;
38264;SDS011;24062;47.480;8.768;2022-12-13T04:39:03;2.83;;;2.03;;
38264;SDS011;24062;47.480;8.768;2022-12-13T04:41:35;2.33;;;2.00;;
38264;SDS011;24062;47.480;8.768;2022-12-13T04:44:03;2.40;;;2.03;;
38264;SDS011;24062;47.480;8.768;2022-12-13T04:46:31;2.20;;;1.87;;
38264;SDS011;24062;47.480;8.768;2022-12-13T04:48:59;2.40;;;1.87;;
38264;SDS011;24062;47.480;8.768;2022-12-13T04:51:26;2.30;;;1.83;;
38264;SDS011;24062;47.480;8.768;2022-12-13T04:53:54;2.50;;;1.97;;
38264;SDS011;24062;47.480;8.768;2022-12-13T04:56:21;2.20;;;1.80;;
38264;SDS011;24062;47.480;8.768;2022-12-13T04:58:49;3.10;;;2.30;;
38264;SDS011;24062;47.480;8.768;2022-12-13T05:01:16;3.57;;;2.13;;
38264;SDS011;24062;47.480;8.768;2022-12-13T05:03:43;2.50;;;2.10;;
38264;SDS011;24062;47.480;8.768;2022-12-13T05:06:10;2.30;;;1.90;;
38264;SDS011;24062;47.480;8.768;2022-12-13T05:08:39;2.70;;;1.80;;
38264;SDS011;24062;47.480;8.768;2022-12-13T05:11:06;6.43;;;2.47;;
38264;SDS011;24062;47.480;8.768;2022-12-13T05:13:35;5.60;;;1.67;;
38264;SDS011;24062;47.480;8.768;2022-12-13T05:16:04;2.63;;;2.23;;
38264;SDS011;24062;47.480;8.768;2022-12-13T05:18:32;2.77;;;2.00;;
38264;SDS011;24062;47.480;8.768;2022-12-13T05:21:01;2.50;;;2.00;;
38264;SDS011;24062;47.480;8.768;2022-12-13T05:23:28;2.17;;;1.90;;
38264;SDS011;24062;47.480;8.768;2022-12-13T05:25:55;2.80;;;2.27;;
38264;SDS011;24062;47.480;8.768;2022-12-13T05:28:22;2.73;;;1.93;;
38264;SDS011;24062;47.480;8.768;2022-12-13T05:30:51;2.70;;;2.17;;
38264;SDS011;24062;47.480;8.768;2022-12-13T05:33:20;2.63;;;2.03;;
38264;SDS011;24062;47.480;8.768;2022-12-13T05:35:47;2.27;;;2.07;;
38264;SDS011;24062;47.480;8.768;2022-12-13T05:38:14;2.60;;;2.07;;
38264;SDS011;24062;47.480;8.768;2022-12-13T05:40:41;7.90;;;2.00;;
38264;SDS011;24062;47.480;8.768;2022-12-13T05:43:08;2.10;;;1.60;;
38264;SDS011;24062;47.480;8.768;2022-12-13T05:45:36;3.80;;;1.70;;
38264;SDS011;24062;47.480;8.768;2022-12-13T05:48:03;3.00;;;2.20;;
38264;SDS011;24062;47.480;8.768;2022-12-13T05:50:31;2.60;;;1.90;;
38264;SDS011;24062;47.480;8.768;2022-12-13T05:52:58;2.30;;;1.90;;
38264;SDS011;24062;47.480;8.768;2022-12-13T05:55:25;2.40;;;1.90;;
38264;SDS011;24062;47.480;8.768;2022-12-13T05:57:52;2.40;;;1.80;;
38264;SDS011;24062;47.480;8.768;2022-12-13T06:00:19;3.20;;;2.20;;
38264;SDS011;24062;47.480;8.768;2022-12-13T06:02:46;6.47;;;2.77;;
38264;SDS011;24062;47.480;8.768;2022-12-13T06:05:13;2.60;;;1.60;;
38264;SDS011;24062;47.480;8.768;2022-12-13T06:07:41;2.60;;;1.73;;
38264;SDS011;24062;47.480;8.768;2022-12-13T06:10:08;4.57;;;2.23;;
38264;SDS011;24062;47.480;8.768;2022-12-13T06:12:35;2.50;;;2.00;;
38264;SDS011;24062;47.480;8.768;2022-12-13T06:15:04;10.87;;;2.30;;
38264;SDS011;24062;47.480;8.768;2022-12-13T06:17:32;3.83;;;2.07;;
38264;SDS011;24062;47.480;8.768;2022-12-13T06:20:00;3.03;;;2.03;;
38264;SDS011;24062;47.480;8.768;2022-12-13T06:22:27;4.10;;;2.33;;
38264;SDS011;24062;47.480;8.768;2022-12-13T06:24:55;2.70;;;2.10;;
38264;SDS011;24062;47.480;8.768;2022-12-13T06:27:22;2.43;;;2.00;;
38264;SDS011;24062;47.480;8.768;2022-12-13T06:29:49;2.60;;;1.93;;
38264;SDS011;24062;47.480;8.768;2022-12-13T06:32:16;4.00;;;2.87;;
38264;SDS011;24062;47.480;8.768;2022-12-13T06:34:43;7.83;;;2.50;;
38264;SDS011;24062;47.480;8.768;2022-12-13T06:37:11;2.87;;;1.90;;
38264;SDS011;24062;47.480;8.768;2022-12-13T06:39:38;2.57;;;1.70;;
38264;SDS011;24062;47.480;8.768;2022-12-13T06:42:13;2.60;;;2.03;;
38264;SDS011;24062;47.480;8.768;2022-12-13T06:44:41;2.40;;;1.83;;
38264;SDS011;24062;47.480;8.768;2022-12-13T06:47:08;2.87;;;1.97;;
38264;SDS011;24062;47.480;8.768;2022-12-13T06:49:36;2.67;;;1.77;;
38264;SDS011;24062;47.480;8.768;2022-12-13T06:52:03;6.53;;;1.70;;
38264;SDS011;24062;47.480;8.768;2022-12-13T06:54:30;2.90;;;2.50;;
38264;SDS011;24062;47.480;8.768;2022-12-13T06:56:58;3.93;;;1.97;;
38264;SDS011;24062;47.480;8.768;2022-12-13T06:59:26;2.87;;;1.70;;
38264;SDS011;24062;47.480;8.768;2022-12-13T07:01:53;2.73;;;1.67;;
38264;SDS011;24062;47.480;8.768;2022-12-13T07:04:20;2.53;;;2.03;;
38264;SDS011;24062;47.480;8.768;2022-12-13T07:06:47;6.63;;;1.80;;
38264;SDS011;24062;47.480;8.768;2022-12-13T07:09:14;2.23;;;1.77;;
38264;SDS011;24062;47.480;8.768;2022-12-13T07:11:41;2.40;;;1.70;;
38264;SDS011;24062;47.480;8.768;2022-12-13T07:14:08;2.83;;;1.77;;
38264;SDS011;24062;47.480;8.768;2022-12-13T07:16:36;2.40;;;1.90;;
38264;SDS011;24062;47.480;8.768;2022-12-13T07:19:03;3.53;;;2.00;;
38264;SDS011;24062;47.480;8.768;2022-12-13T07:21:31;2.90;;;2.10;;
38264;SDS011;24062;47.480;8.768;2022-12-13T07:24:00;2.60;;;1.70;;
38264;SDS011;24062;47.480;8.768;2022-12-13T07:26:27;4.50;;;2.10;;
38264;SDS011;24062;47.480;8.768;2022-12-13T07:28:54;2.07;;;1.70;;
38264;SDS011;24062;47.480;8.768;2022-12-13T07:31:21;4.00;;;2.07;;
38264;SDS011;24062;47.480;8.768;2022-12-13T07:33:50;4.20;;;2.03;;
38264;SDS011;24062;47.480;8.768;2022-12-13T07:36:18;2.40;;;1.77;;
38264;SDS011;24062;47.480;8.768;2022-12-13T07:38:49;2.60;;;1.60;;
38264;SDS011;24062;47.480;8.768;2022-12-13T07:41:16;3.90;;;1.90;;
38264;SDS011;24062;47.480;8.768;2022-12-13T07:43:44;2.33;;;1.60;;
38264;SDS011;24062;47.480;8.768;2022-12-13T07:46:11;2.33;;;1.87;;
38264;SDS011;24062;47.480;8.768;2022-12-13T07:48:38;2.10;;;1.63;;
38264;SDS011;24062;47.480;8.768;2022-12-13T07:51:07;2.47;;;1.60;;
38264;SDS011;24062;47.480;8.768;2022-12-13T07:53:36;2.67;;;1.50;;
38264;SDS011;24062;47.480;8.768;2022-12-13T07:56:04;2.50;;;1.80;;
38264;SDS011;24062;47.480;8.768;2022-12-13T07:58:32;2.20;;;1.60;;
38264;SDS011;24062;47.480;8.768;2022-12-13T08:01:00;2.00;;;1.53;;
38264;SDS011;24062;47.480;8.768;2022-12-13T08:03:29;2.53;;;1.67;;
38264;SDS011;24062;47.480;8.768;2022-12-13T08:05:59;2.40;;;1.70;;
38264;SDS011;24062;47.480;8.768;2022-12-13T08:08:28;2.50;;;1.80;;
38264;SDS011;24062;47.480;8.768;2022-12-13T08:10:59;11.33;;;1.93;;
38264;SDS011;24062;47.480;8.768;2022-12-13T08:13:26;2.30;;;1.80;;
38264;SDS011;24062;47.480;8.768;2022-12-13T08:15:56;2.27;;;1.70;;
38264;SDS011;24062;47.480;8.768;2022-12-13T08:18:24;1.90;;;1.30;;
38264;SDS011;24062;47.480;8.768;2022-12-13T08:20:51;3.10;;;1.97;;
38264;SDS011;24062;47.480;8.768;2022-12-13T08:23:17;2.30;;;1.87;;
38264;SDS011;24062;47.480;8.768;2022-12-13T08:25:50;2.10;;;1.60;;
38264;SDS011;24062;47.480;8.768;2022-12-13T08:28:17;2.83;;;2.10;;
38264;SDS011;24062;47.480;8.768;2022-12-13T08:30:44;2.00;;;1.50;;
38264;SDS011;24062;47.480;8.768;2022-12-13T08:33:13;2.10;;;1.80;;
38264;SDS011;24062;47.480;8.768;2022-12-13T08:35:40;2.30;;;1.53;;
38264;SDS011;24062;47.480;8.768;2022-12-13T08:38:07;1.90;;;1.50;;
38264;SDS011;24062;47.480;8.768;2022-12-13T08:40:34;2.00;;;1.50;;
38264;SDS011;24062;47.480;8.768;2022-12-13T08:43:02;1.90;;;1.50;;
38264;SDS011;24062;47.480;8.768;2022-12-13T08:45:29;2.00;;;1.63;;
38264;SDS011;24062;47.480;8.768;2022-12-13T08:47:58;2.20;;;1.30;;
38264;SDS011;24062;47.480;8.768;2022-12-13T08:50:26;2.00;;;1.30;;
38264;SDS011;24062;47.480;8.768;2022-12-13T08:52:53;3.00;;;1.67;;
38264;SDS011;24062;47.480;8.768;2022-12-13T08:55:20;2.30;;;1.93;;
38264;SDS011;24062;47.480;8.768;2022-12-13T08:57:47;2.27;;;1.80;;
38264;SDS011;24062;47.480;8.768;2022-12-13T09:00:16;2.13;;;1.70;;
38264;SDS011;24062;47.480;8.768;2022-12-13T09:02:44;2.23;;;1.70;;
38264;SDS011;24062;47.480;8.768;2022-12-13T09:05:11;2.00;;;1.50;;
38264;SDS011;24062;47.480;8.768;2022-12-13T09:07:38;2.17;;;1.40;;
38264;SDS011;24062;47.480;8.768;2022-12-13T09:10:06;2.00;;;1.40;;
38264;SDS011;24062;47.480;8.768;2022-12-13T09:12:34;2.00;;;1.20;;
38264;SDS011;24062;47.480;8.768;2022-12-13T09:15:01;3.23;;;1.40;;
38264;SDS011;24062;47.480;8.768;2022-12-13T09:17:30;1.97;;;1.63;;
38264;SDS011;24062;47.480;8.768;2022-12-13T09:19:58;2.07;;;1.60;;
38264;SDS011;24062;47.480;8.768;2022-12-13T09:22:25;1.93;;;1.33;;
38264;SDS011;24062;47.480;8.768;2022-12-13T09:24:51;1.97;;;1.50;;
38264;SDS011;24062;47.480;8.768;2022-12-13T09:27:18;2.00;;;1.50;;
38264;SDS011;24062;47.480;8.768;2022-12-13T09:29:45;3.83;;;1.50;;
38264;SDS011;24062;47.480;8.768;2022-12-13T09:32:12;3.00;;;1.63;;
38264;SDS011;24062;47.480;8.768;2022-12-13T09:34:40;2.30;;;1.83;;
38264;SDS011;24062;47.480;8.768;2022-12-13T09:37:07;2.40;;;2.00;;
38264;SDS011;24062;47.480;8.768;2022-12-13T09:39:36;3.00;;;1.90;;
38264;SDS011;24062;47.480;8.768;2022-12-13T09:42:03;1.93;;;1.50;;
38264;SDS011;24062;47.480;8.768;2022-12-13T09:44:36;2.63;;;1.80;;
38264;SDS011;24062;47.480;8.768;2022-12-13T09:47:08;2.93;;;1.57;;
38264;SDS011;24062;47.480;8.768;2022-12-13T09:49:41;2.40;;;1.37;;
38264;SDS011;24062;47.480;8.768;2022-12-13T09:52:10;2.23;;;1.33;;
38264;SDS011;24062;47.480;8.768;2022-12-13T09:54:39;2.00;;;1.40;;
38264;SDS011;24062;47.480;8.768;2022-12-13T09:57:08;2.03;;;1.40;;
38264;SDS011;24062;47.480;8.768;2022-12-13T09:59:40;2.20;;;1.53;;
38264;SDS011;24062;47.480;8.768;2022-12-13T10:02:13;1.90;;;1.40;;
38264;SDS011;24062;47.480;8.768;2022-12-13T10:04:44;2.77;;;2.17;;
38264;SDS011;24062;47.480;8.768;2022-12-13T10:07:11;4.10;;;1.40;;
38264;SDS011;24062;47.480;8.768;2022-12-13T10:09:42;2.27;;;1.37;;
38264;SDS011;24062;47.480;8.768;2022-12-13T10:12:09;2.60;;;1.70;;
38264;SDS011;24062;47.480;8.768;2022-12-13T10:14:40;2.10;;;1.80;;
38264;SDS011;24062;47.480;8.768;2022-12-13T10:17:11;2.23;;;1.73;;
38264;SDS011;24062;47.480;8.768;2022-12-13T10:19:42;2.20;;;1.63;;
38264;SDS011;24062;47.480;8.768;2022-12-13T10:22:15;2.20;;;1.87;;
38264;SDS011;24062;47.480;8.768;2022-12-13T10:24:48;2.20;;;1.80;;
38264;SDS011;24062;47.480;8.768;2022-12-13T10:27:18;3.33;;;1.93;;
38264;SDS011;24062;47.480;8.768;2022-12-13T10:29:58;2.97;;;2.07;;
38264;SDS011;24062;47.480;8.768;2022-12-13T10:32:27;2.23;;;1.90;;
38264;SDS011;24062;47.480;8.768;2022-12-13T10:34:59;2.53;;;1.70;;
38264;SDS011;24062;47.480;8.768;2022-12-13T10:37:26;2.00;;;1.67;;
38264;SDS011;24062;47.480;8.768;2022-12-13T10:39:54;2.30;;;1.90;;
38264;SDS011;24062;47.480;8.768;2022-12-13T10:42:23;3.13;;;2.00;;
38264;SDS011;24062;47.480;8.768;2022-12-13T10:45:08;2.47;;;2.03;;
38264;SDS011;24062;47.480;8.768;2022-12-13T10:47:40;2.20;;;1.83;;
38264;SDS011;24062;47.480;8.768;2022-12-13T10:50:15;2.50;;;2.07;;
38264;SDS011;24062;47.480;8.768;2022-12-13T10:52:49;2.20;;;1.80;;
38264;SDS011;24062;47.480;8.768;2022-12-13T10:55:21;2.40;;;2.07;;
38264;SDS011;24062;47.480;8.768;2022-12-13T10:57:54;2.70;;;1.93;;
38264;SDS011;24062;47.480;8.768;2022-12-13T11:00:30;2.20;;;1.97;;
38264;SDS011;24062;47.480;8.768;2022-12-13T11:03:01;2.47;;;2.27;;
38264;SDS011;24062;47.480;8.768;2022-12-13T11:05:30;2.40;;;2.03;;
38264;SDS011;24062;47.480;8.768;2022-12-13T11:08:10;4.67;;;2.20;;
38264;SDS011;24062;47.480;8.768;2022-12-13T11:10:39;3.30;;;2.20;;
38264;SDS011;24062;47.480;8.768;2022-12-13T11:13:06;2.70;;;2.40;;
38264;SDS011;24062;47.480;8.768;2022-12-13T11:15:34;2.27;;;2.07;;
38264;SDS011;24062;47.480;8.768;2022-12-13T11:18:04;2.40;;;2.20;;
38264;SDS011;24062;47.480;8.768;2022-12-13T11:20:34;2.97;;;2.03;;
38264;SDS011;24062;47.480;8.768;2022-12-13T11:23:03;3.20;;;2.90;;
38264;SDS011;24062;47.480;8.768;2022-12-13T11:25:34;2.37;;;1.87;;
38264;SDS011;24062;47.480;8.768;2022-12-13T11:28:12;2.70;;;2.33;;
38264;SDS011;24062;47.480;8.768;2022-12-13T11:30:49;2.17;;;1.77;;
38264;SDS011;24062;47.480;8.768;2022-12-13T11:33:26;2.27;;;1.90;;
38264;SDS011;24062;47.480;8.768;2022-12-13T11:36:07;2.83;;;1.90;;
38264;SDS011;24062;47.480;8.768;2022-12-13T11:38:47;5.20;;;2.00;;
38264;SDS011;24062;47.480;8.768;2022-12-13T11:41:25;2.33;;;2.13;;
38264;SDS011;24062;47.480;8.768;2022-12-13T11:43:56;2.57;;;2.37;;
38264;SDS011;24062;47.480;8.768;2022-12-13T11:46:27;2.40;;;2.17;;
38264;SDS011;24062;47.480;8.768;2022-12-13T11:49:05;2.53;;;2.20;;
38264;SDS011;24062;47.480;8.768;2022-12-13T11:51:39;2.60;;;2.40;;
38264;SDS011;24062;47.480;8.768;2022-12-13T11:54:13;2.40;;;2.10;;
38264;SDS011;24062;47.480;8.768;2022-12-13T11:56:47;2.23;;;1.87;;
38264;SDS011;24062;47.480;8.768;2022-12-13T11:59:20;3.10;;;2.50;;
38264;SDS011;24062;47.480;8.768;2022-12-13T12:01:53;2.30;;;2.10;;
38264;SDS011;24062;47.480;8.768;2022-12-13T12:04:25;3.67;;;2.17;;
38264;SDS011;24062;47.480;8.768;2022-12-13T12:07:02;3.63;;;2.00;;
38264;SDS011;24062;47.480;8.768;2022-12-13T12:09:33;2.03;;;1.70;;
38264;SDS011;24062;47.480;8.768;2022-12-13T12:12:05;2.97;;;2.07;;
38264;SDS011;24062;47.480;8.768;2022-12-13T12:14:37;2.63;;;2.40;;
38264;SDS011;24062;47.480;8.768;2022-12-13T12:17:11;2.47;;;2.10;;
38264;SDS011;24062;47.480;8.768;2022-12-13T12:19:40;3.17;;;2.10;;
38264;SDS011;24062;47.480;8.768;2022-12-13T12:22:16;3.03;;;2.17;;
38264;SDS011;24062;47.480;8.768;2022-12-13T12:24:56;2.33;;;1.90;;
38264;SDS011;24062;47.480;8.768;2022-12-13T12:27:34;2.83;;;2.20;;
38264;SDS011;24062;47.480;8.768;2022-12-13T12:30:18;2.47;;;1.83;;
38264;SDS011;24062;47.480;8.768;2022-12-13T12:32:48;2.40;;;2.03;;
38264;SDS011;24062;47.480;8.768;2022-12-13T12:35:28;2.70;;;2.30;;
38264;SDS011;24062;47.480;8.768;2022-12-13T12:38:13;2.80;;;2.40;;
38264;SDS011;24062;47.480;8.768;2022-12-13T12:43:51;3.27;;;2.20;;
38264;SDS011;24062;47.480;8.768;2022-12-13T12:46:32;2.50;;;2.30;;
38264;SDS011;24062;47.480;8.768;2022-12-13T12:49:30;2.50;;;1.97;;
38264;SDS011;24062;47.480;8.768;2022-12-13T12:52:25;3.63;;;2.57;;
38264;SDS011;24062;47.480;8.768;2022-12-13T12:55:02;2.53;;;2.23;;
38264;SDS011;24062;47.480;8.768;2022-12-13T12:57:38;2.57;;;1.80;;
38264;SDS011;24062;47.480;8.768;2022-12-13T13:00:13;2.40;;;2.10;;
38264;SDS011;24062;47.480;8.768;2022-12-13T13:02:43;2.60;;;2.10;;
38264;SDS011;24062;47.480;8.768;2022-12-13T13:05:18;2.30;;;1.87;;
38264;SDS011;24062;47.480;8.768;2022-12-13T13:07:50;2.80;;;2.03;;
38264;SDS011;24062;47.480;8.768;2022-12-13T13:10:23;2.53;;;2.33;;
38264;SDS011;24062;47.480;8.768;2022-12-13T13:12:51;2.20;;;1.90;;
38264;SDS011;24062;47.480;8.768;2022-12-13T13:18:47;2.93;;;2.10;;
38264;SDS011;24062;47.480;8.768;2022-12-13T13:24:21;3.17;;;2.43;;
38264;SDS011;24062;47.480;8.768;2022-12-13T13:26:52;2.33;;;2.10;;
38264;SDS011;24062;47.480;8.768;2022-12-13T13:29:30;2.87;;;2.40;;
38264;SDS011;24062;47.480;8.768;2022-12-13T13:32:02;2.57;;;2.33;;
38264;SDS011;24062;47.480;8.768;2022-12-13T13:34:48;2.83;;;2.53;;
38264;SDS011;24062;47.480;8.768;2022-12-13T13:37:27;2.40;;;2.10;;
38264;SDS011;24062;47.480;8.768;2022-12-13T13:43:11;2.57;;;1.90;;
38264;SDS011;24062;47.480;8.768;2022-12-13T13:45:51;2.30;;;2.10;;
38264;SDS011;24062;47.480;8.768;2022-12-13T13:48:27;3.00;;;2.47;;
38264;SDS011;24062;47.480;8.768;2022-12-13T13:54:33;2.40;;;2.00;;
38264;SDS011;24062;47.480;8.768;2022-12-13T13:57:39;4.53;;;1.83;;
38264;SDS011;24062;47.480;8.768;2022-12-13T14:00:32;3.17;;;1.90;;
38264;SDS011;24062;47.480;8.768;2022-12-13T14:06:45;2.37;;;2.17;;
38264;SDS011;24062;47.480;8.768;2022-12-13T14:09:52;2.90;;;2.17;;
38264;SDS011;24062;47.480;8.768;2022-12-13T14:22:24;2.87;;;2.20;;
38264;SDS011;24062;47.480;8.768;2022-12-13T14:25:03;3.80;;;2.20;;
38264;SDS011;24062;47.480;8.768;2022-12-13T14:27:56;4.33;;;2.17;;
38264;SDS011;24062;47.480;8.768;2022-12-13T14:30:33;2.40;;;1.87;;
38264;SDS011;24062;47.480;8.768;2022-12-13T14:33:10;2.30;;;2.10;;
38264;SDS011;24062;47.480;8.768;2022-12-13T14:35:48;3.20;;;1.93;;
38264;SDS011;24062;47.480;8.768;2022-12-13T14:38:20;2.30;;;2.10;;
38264;SDS011;24062;47.480;8.768;2022-12-13T14:40:48;3.10;;;2.00;;
38264;SDS011;24062;47.480;8.768;2022-12-13T14:43:23;5.80;;;2.30;;
38264;SDS011;24062;47.480;8.768;2022-12-13T14:45:52;2.87;;;2.03;;
38264;SDS011;24062;47.480;8.768;2022-12-13T14:48:22;2.97;;;2.13;;
38264;SDS011;24062;47.480;8.768;2022-12-13T14:50:50;2.30;;;2.07;;
38264;SDS011;24062;47.480;8.768;2022-12-13T14:53:21;2.20;;;1.90;;
38264;SDS011;24062;47.480;8.768;2022-12-13T14:56:04;2.10;;;1.60;;
38264;SDS011;24062;47.480;8.768;2022-12-13T14:58:32;3.17;;;1.93;;
38264;SDS011;24062;47.480;8.768;2022-12-13T15:01:01;3.00;;;2.47;;
38264;SDS011;24062;47.480;8.768;2022-12-13T15:03:30;3.60;;;1.90;;
38264;SDS011;24062;47.480;8.768;2022-12-13T15:05:59;2.40;;;2.00;;
38264;SDS011;24062;47.480;8.768;2022-12-13T15:08:36;3.87;;;2.37;;
38264;SDS011;24062;47.480;8.768;2022-12-13T15:11:03;2.60;;;2.00;;
38264;SDS011;24062;47.480;8.768;2022-12-13T15:13:34;2.07;;;1.57;;
38264;SDS011;24062;47.480;8.768;2022-12-13T15:16:05;2.57;;;1.73;;
38264;SDS011;24062;47.480;8.768;2022-12-13T15:18:36;2.20;;;1.80;;
38264;SDS011;24062;47.480;8.768;2022-12-13T15:21:12;2.17;;;1.70;;
38264;SDS011;24062;47.480;8.768;2022-12-13T15:23:44;2.80;;;2.40;;
38264;SDS011;24062;47.480;8.768;2022-12-13T15:26:13;2.43;;;1.70;;
38264;SDS011;24062;47.480;8.768;2022-12-13T15:28:42;2.40;;;1.80;;
38264;SDS011;24062;47.480;8.768;2022-12-13T15:31:10;2.00;;;1.60;;
38264;SDS011;24062;47.480;8.768;2022-12-13T15:33:40;3.00;;;1.80;;
38264;SDS011;24062;47.480;8.768;2022-12-13T15:36:07;2.30;;;1.57;;
38264;SDS011;24062;47.480;8.768;2022-12-13T15:38:36;2.63;;;1.87;;
38264;SDS011;24062;47.480;8.768;2022-12-13T15:41:05;2.30;;;2.00;;